Darra — 2992QD — position and weather

sailwx.info

Track history (hours):
 
Tides and Currents Weather Stations Pressure Air Temp Water Temp Dewpoint Dewpoint Depression Visibility Wind Speed Wind Dir Waves Ship Positions

Darra

Last reported at 2017-Nov-22 20:13 UTC. Time now 2017-Nov-22 20:32 UTC.
Position S 27°04' E 153°17'.

Length 79 m.

Type: Cargo ship. MMSI: 503012060.

Date/timePositionNaut miles runAvg speedWind from/ knotsBaromVisibWave heightAir tempDewpointWater temp
2017-Nov-22 20:13S 27°04' E 153°17'0 0.0
2017-Nov-22 19:46S 27°04' E 153°17'0 0.0
2017-Nov-22 19:24S 27°04' E 153°17'  
2017-Nov-17 09:20S 27°24' E 153°09'2 6.0
2017-Nov-17 08:55S 27°22' E 153°10'3 5.8
2017-Nov-17 08:23S 27°19' E 153°12'3 5.9
2017-Nov-17 07:53S 27°17' E 153°14'2 5.9
2017-Nov-17 07:30S 27°15' E 153°15'4 0.5
2017-Nov-17 00:07S 27°12' E 153°17'2 6.6
2017-Nov-16 23:50S 27°14' E 153°16'3 6.5
2017-Nov-16 23:21S 27°16' E 153°14'9 0.2
2017-Nov-15 07:48S 27°24' E 153°09'2 6.1
2017-Nov-15 07:29S 27°23' E 153°10'5 5.8
2017-Nov-15 06:39S 27°18' E 153°13'1 5.8
2017-Nov-15 06:30S 27°18' E 153°13'3 5.9
2017-Nov-15 05:58S 27°15' E 153°15'3 6.0
2017-Nov-15 05:29S 27°13' E 153°17'1 0.1
2017-Nov-14 22:39S 27°12' E 153°18'1 6.9
2017-Nov-14 22:29S 27°13' E 153°17'3 6.7
2017-Nov-14 21:59S 27°16' E 153°15'3 6.6
2017-Nov-14 21:29S 27°18' E 153°13'3 6.4
2017-Nov-14 21:00S 27°21' E 153°11'3 5.3
2017-Nov-14 20:30S 27°23' E 153°09'1 0.1
2017-Nov-14 06:32S 27°22' E 153°10'5 5.8
2017-Nov-14 05:35S 27°18' E 153°13'0 5.8
2017-Nov-14 05:30S 27°17' E 153°13'3 5.8
2017-Nov-14 04:59S 27°15' E 153°15'5 0.8
2017-Nov-13 22:01S 27°10' E 153°19'0 7.1
2017-Nov-13 21:57S 27°11' E 153°18'2 0.1
2017-Nov-12 21:16S 27°09' E 153°19'3 6.7
2017-Nov-12 20:49S 27°12' E 153°18'2 6.0
2017-Nov-12 20:29S 27°13' E 153°16'3 6.5
2017-Nov-12 20:00S 27°16' E 153°15'  
Track history (hours):
 
Tides and Currents Weather Stations Pressure Air Temp Water Temp Dewpoint Dewpoint Depression Visibility Wind Speed Wind Dir Waves Ship Positions

Darra

Last reported at 2017-Nov-22 20:13 UTC. Time now 2017-Nov-22 20:32 UTC.
Position S 27°04' E 153°17'.

Length 79 m.

Type: Cargo ship. MMSI: 503012060.

Date/timePositionNaut miles runAvg speedWind from/ knotsBaromVisibWave heightAir tempDewpointWater temp
2017-Nov-22 20:13S 27°04' E 153°17'0 0.0
2017-Nov-22 19:46S 27°04' E 153°17'0 0.0
2017-Nov-22 19:24S 27°04' E 153°17'  
2017-Nov-17 09:20S 27°24' E 153°09'2 6.0
2017-Nov-17 08:55S 27°22' E 153°10'3 5.8
2017-Nov-17 08:23S 27°19' E 153°12'3 5.9
2017-Nov-17 07:53S 27°17' E 153°14'2 5.9
2017-Nov-17 07:30S 27°15' E 153°15'4 0.5
2017-Nov-17 00:07S 27°12' E 153°17'2 6.6
2017-Nov-16 23:50S 27°14' E 153°16'3 6.5
2017-Nov-16 23:21S 27°16' E 153°14'9 0.2
2017-Nov-15 07:48S 27°24' E 153°09'2 6.1
2017-Nov-15 07:29S 27°23' E 153°10'5 5.8
2017-Nov-15 06:39S 27°18' E 153°13'1 5.8
2017-Nov-15 06:30S 27°18' E 153°13'3 5.9
2017-Nov-15 05:58S 27°15' E 153°15'3 6.0
2017-Nov-15 05:29S 27°13' E 153°17'1 0.1
2017-Nov-14 22:39S 27°12' E 153°18'1 6.9
2017-Nov-14 22:29S 27°13' E 153°17'3 6.7
2017-Nov-14 21:59S 27°16' E 153°15'3 6.6
2017-Nov-14 21:29S 27°18' E 153°13'3 6.4
2017-Nov-14 21:00S 27°21' E 153°11'3 5.3
2017-Nov-14 20:30S 27°23' E 153°09'1 0.1
2017-Nov-14 06:32S 27°22' E 153°10'5 5.8
2017-Nov-14 05:35S 27°18' E 153°13'0 5.8
2017-Nov-14 05:30S 27°17' E 153°13'3 5.8
2017-Nov-14 04:59S 27°15' E 153°15'5 0.8
2017-Nov-13 22:01S 27°10' E 153°19'0 7.1
2017-Nov-13 21:57S 27°11' E 153°18'2 0.1
2017-Nov-12 21:16S 27°09' E 153°19'3 6.7
2017-Nov-12 20:49S 27°12' E 153°18'2 6.0
2017-Nov-12 20:29S 27°13' E 153°16'3 6.5
2017-Nov-12 20:00S 27°16' E 153°15'  

Dump ship's entire track history